This is the latest recevied weather packets stored in our database for station/object K1ABC. If no packets are shown the sender has not sent any weather packets the latest 10 day(s).
| Time | Temp. | Humidity | Pressure | Rain* | Wind** | Luminosity | Snow |
|---|---|---|---|---|---|---|---|
| 1778027940 | 22.22° C | 50% | 1006.9 hPa | 0 mm | - | - | - |
| 1778026867 | 22.22° C | 49% | 1006.5 hPa | 0 mm | - | - | - |
| 1778026415 | 22.22° C | 49% | 1006.3 hPa | 0 mm | - | - | - |
| 1778024582 | 23.33° C | 48% | 1005.8 hPa | 0 mm | - | - | - |
| 1778024383 | 23.33° C | 48% | 1005.7 hPa | 0 mm | - | - | - |
| 1778023184 | 23.89° C | 46% | 1005.4 hPa | 0 mm | - | - | - |
| 1778022980 | 23.89° C | 46% | 1005.3 hPa | 0 mm | - | - | - |
| 1778022412 | 24.44° C | 45% | 1005.1 hPa | 0 mm | - | - | - |
| 1778022209 | 24.44° C | 45% | 1005 hPa | 0 mm | - | - | - |
| 1778021510 | 25° C | 44% | 1005 hPa | 0 mm | - | - | - |
| 1778020812 | 25.56° C | 42% | 1004.7 hPa | 0 mm | - | - | - |
| 1778019488 | 26.11° C | 40% | 1004.4 hPa | 0 mm | - | - | - |
| 1778019173 | 26.11° C | 39% | 1004.3 hPa | 0 mm | - | - | - |
| 1778018846 | 26.11° C | 39% | 1004.2 hPa | 0 mm | - | - | - |
| 1778018013 | 26.67° C | 39% | 1004.1 hPa | 0 mm | - | - | - |
| 1778017433 | 27.22° C | 38% | 1003.9 hPa | 0 mm | - | - | - |
| 1778014633 | 27.78° C | 36% | 1003.6 hPa | 0 mm | - | - | - |
| 1778013939 | 28.33° C | 36% | 1003.7 hPa | 0 mm | - | - | - |
| 1778013734 | 28.33° C | 35% | 1003.6 hPa | 0 mm | - | - | - |
| 1778013158 | 28.33° C | 35% | 1003.8 hPa | 0 mm | - | - | - |
| 1778012834 | 28.33° C | 36% | 1003.8 hPa | 0 mm | - | - | - |
| 1778011894 | 28.33° C | 35% | 1003.9 hPa | 0 mm | - | - | - |
| 1778010944 | 28.33° C | 37% | 1003.9 hPa | 0 mm | - | - | - |
| 1778009994 | 28.89° C | 35% | 1004 hPa | 0 mm | - | - | - |
| 1778009299 | 28.33° C | 35% | 1004.3 hPa | 0 mm | - | - | - |
* Rain latest hour (hover to see other rain measurements)
** Current wind speed in m/s (hover to see current wind gust speed)